Time;durP1;ratioP1;P1;durP2;ratioP2;P2;SDS_P1;SDS_P2;PMS_P1;PMS_P2;Temp;Humidity;BMP_temperature;BMP_pressure;BME280_temperature;BME280_humidity;BME280_pressure;Samples;Min_cycle;Max_cycle;Signal;HPM_P1;HPM_P2
2021/06/01 00:00:17;;;;;;;11.03;5.93;;;;;;;;;;4996766;28;20442;-78
2021/06/01 00:02:42;;;;;;;13.53;6.70;;;;;;;;;;4997493;28;20077;-76
2021/06/01 00:05:08;;;;;;;13.07;6.73;;;;;;;;;;4996385;28;20041;-76
2021/06/01 00:07:34;;;;;;;15.83;6.63;;;;;;;;;;4997009;28;20101;-75
2021/06/01 00:10:00;;;;;;;8.23;5.77;;;;;;;;;;4996524;28;20523;-76
2021/06/01 00:12:26;;;;;;;11.67;7.30;;;;;;;;;;4996933;28;20037;-77
2021/06/01 00:14:51;;;;;;;12.30;6.80;;;;;;;;;;4997124;28;20045;-74
2021/06/01 00:17:17;;;;;;;13.80;6.93;;;;;;;;;;4997185;28;20031;-77
2021/06/01 00:19:43;;;;;;;18.30;8.17;;;;;;;;;;4995294;28;20050;-76
2021/06/01 00:22:09;;;;;;;10.23;6.33;;;;;;;;;;4996693;28;20455;-76
2021/06/01 00:24:34;;;;;;;11.57;5.67;;;;;;;;;;4995842;28;20030;-75
2021/06/01 00:27:01;;;;;;;9.53;6.40;;;;;;;;;;4994845;28;20399;-77
2021/06/01 00:29:27;;;;;;;9.90;6.87;;;;;;;;;;4996422;28;20037;-76
2021/06/01 00:31:52;;;;;;;10.90;6.27;;;;;;;;;;4994874;28;20026;-75
2021/06/01 00:34:18;;;;;;;8.90;5.87;;;;;;;;;;4995056;28;20061;-75
2021/06/01 00:36:43;;;;;;;7.93;6.03;;;;;;;;;;4995886;28;20030;-76
2021/06/01 00:39:09;;;;;;;8.70;6.13;;;;;;;;;;4995184;28;20125;-76
2021/06/01 00:41:35;;;;;;;9.60;6.20;;;;;;;;;;4996839;28;20056;-76
2021/06/01 00:44:00;;;;;;;8.50;6.40;;;;;;;;;;4996633;28;20278;-75
2021/06/01 00:46:26;;;;;;;11.10;6.30;;;;;;;;;;4995647;28;20365;-76
2021/06/01 00:48:51;;;;;;;8.90;6.27;;;;;;;;;;4995200;28;20030;-76
2021/06/01 00:51:17;;;;;;;11.03;5.77;;;;;;;;;;4995821;28;20038;-75
2021/06/01 00:53:43;;;;;;;10.60;6.47;;;;;;;;;;4978790;28;20486;-74
2021/06/01 00:56:09;;;;;;;8.87;6.47;;;;;;;;;;4995719;28;20035;-76
2021/06/01 00:58:35;;;;;;;10.20;6.70;;;;;;;;;;4996838;28;20061;-78
2021/06/01 01:03:38;;;;;;;14.63;6.47;;;;;;;;;;4997249;28;20065;-75
2021/06/01 01:06:23;;;;;;;9.53;6.23;;;;;;;;;;4991362;28;20030;-76
2021/06/01 01:08:55;;;;;;;11.83;6.47;;;;;;;;;;4991766;28;20037;-77
2021/06/01 01:12:04;;;;;;;8.73;6.07;;;;;;;;;;4992403;28;20034;-76
2021/06/01 01:14:31;;;;;;;13.10;7.47;;;;;;;;;;5010276;28;20026;-76
2021/06/01 01:17:01;;;;;;;10.80;7.00;;;;;;;;;;4995348;28;20037;-76
2021/06/01 01:20:07;;;;;;;10.47;6.47;;;;;;;;;;4993403;28;20040;-75
2021/06/01 01:22:36;;;;;;;9.17;6.20;;;;;;;;;;4991484;28;20495;-75
2021/06/01 01:25:05;;;;;;;10.10;6.87;;;;;;;;;;4993036;28;20356;-77
2021/06/01 01:27:51;;;;;;;11.00;6.83;;;;;;;;;;4993656;28;20542;-76
2021/06/01 01:30:18;;;;;;;12.37;6.77;;;;;;;;;;4992086;28;20390;-75
2021/06/01 01:32:58;;;;;;;13.23;6.80;;;;;;;;;;4992970;28;20096;-76
2021/06/01 01:35:29;;;;;;;9.87;6.80;;;;;;;;;;4993298;28;20509;-76
2021/06/01 01:38:00;;;;;;;10.40;6.60;;;;;;;;;;4991026;28;20034;-75
2021/06/01 01:40:28;;;;;;;15.07;7.50;;;;;;;;;;4992794;28;20022;-76
2021/06/01 01:43:01;;;;;;;16.80;6.60;;;;;;;;;;4990989;28;20054;-74
2021/06/01 01:45:30;;;;;;;11.50;7.67;;;;;;;;;;4991491;28;20117;-75
2021/06/01 01:50:44;;;;;;;15.63;6.53;;;;;;;;;;4992872;28;20117;-76
2021/06/01 01:53:19;;;;;;;17.47;7.67;;;;;;;;;;4992713;28;20022;-74
2021/06/01 01:55:48;;;;;;;11.93;6.70;;;;;;;;;;4992799;28;20138;-74
2021/06/01 01:58:16;;;;;;;14.67;6.70;;;;;;;;;;4991613;28;20109;-76
2021/06/01 02:00:42;;;;;;;12.20;6.93;;;;;;;;;;4990764;28;20058;-75
2021/06/01 02:03:08;;;;;;;12.57;6.90;;;;;;;;;;4992307;28;20037;-77
2021/06/01 02:05:38;;;;;;;11.27;7.10;;;;;;;;;;4992796;28;20022;-77
2021/06/01 02:08:04;;;;;;;10.53;6.47;;;;;;;;;;4990305;28;20077;-76
2021/06/01 02:10:29;;;;;;;14.97;6.87;;;;;;;;;;4990871;28;20022;-76
2021/06/01 02:12:55;;;;;;;13.50;6.87;;;;;;;;;;4992220;28;20038;-75
2021/06/01 02:15:21;;;;;;;10.83;6.53;;;;;;;;;;4990250;28;20037;-76
2021/06/01 02:17:46;;;;;;;15.43;6.97;;;;;;;;;;4991448;28;20049;-75
2021/06/01 02:20:14;;;;;;;10.57;6.60;;;;;;;;;;4990305;28;20402;-76
2021/06/01 02:25:55;;;;;;;11.93;6.90;;;;;;;;;;4992450;28;20037;-76
2021/06/01 02:28:31;;;;;;;9.43;6.53;;;;;;;;;;4992497;28;20046;-75
2021/06/01 02:31:00;;;;;;;10.63;7.13;;;;;;;;;;4990419;28;20038;-76
2021/06/01 02:33:30;;;;;;;8.60;6.53;;;;;;;;;;4991989;28;20081;-75
2021/06/01 02:35:59;;;;;;;11.33;6.70;;;;;;;;;;5002157;28;20026;-75
2021/06/01 02:38:28;;;;;;;9.03;6.40;;;;;;;;;;4998703;28;20020;-73
2021/06/01 02:40:54;;;;;;;10.77;6.57;;;;;;;;;;4994049;28;20026;-75
2021/06/01 02:43:21;;;;;;;9.77;6.73;;;;;;;;;;4992174;28;20093;-75
2021/06/01 02:45:48;;;;;;;13.07;7.57;;;;;;;;;;4990834;28;20037;-74
2021/06/01 02:48:17;;;;;;;10.13;6.33;;;;;;;;;;4990740;28;20037;-75
2021/06/01 02:50:45;;;;;;;10.13;6.97;;;;;;;;;;4990499;28;20032;-73
2021/06/01 02:53:12;;;;;;;12.53;6.97;;;;;;;;;;4990283;28;20026;-75
2021/06/01 02:55:38;;;;;;;12.63;7.00;;;;;;;;;;4990454;28;20058;-73
2021/06/01 02:58:12;;;;;;;22.80;7.70;;;;;;;;;;4990051;28;20123;-74
2021/06/01 03:00:39;;;;;;;13.43;6.80;;;;;;;;;;4991826;28;20030;-74
2021/06/01 03:03:06;;;;;;;9.13;6.50;;;;;;;;;;4989892;28;20030;-74
2021/06/01 03:05:32;;;;;;;16.13;6.90;;;;;;;;;;4991655;28;20034;-73
2021/06/01 03:08:10;;;;;;;12.37;7.40;;;;;;;;;;4989675;28;20030;-74
2021/06/01 03:10:35;;;;;;;9.93;6.60;;;;;;;;;;4989654;28;20051;-74
2021/06/01 03:13:01;;;;;;;17.53;7.30;;;;;;;;;;4989262;28;20026;-75
2021/06/01 03:15:27;;;;;;;11.47;6.70;;;;;;;;;;5005461;28;20034;-74
2021/06/01 03:17:53;;;;;;;19.13;7.33;;;;;;;;;;4988980;28;20471;-75
2021/06/01 03:20:21;;;;;;;10.60;6.57;;;;;;;;;;4989300;28;20022;-74
2021/06/01 03:22:47;;;;;;;13.43;7.03;;;;;;;;;;4989558;28;20553;-75
2021/06/01 03:25:13;;;;;;;10.87;6.73;;;;;;;;;;4989365;28;20026;-74
2021/06/01 03:27:40;;;;;;;10.87;6.33;;;;;;;;;;4990329;28;20084;-75
2021/06/01 03:30:08;;;;;;;9.57;6.47;;;;;;;;;;4990039;28;20026;-74
2021/06/01 03:32:33;;;;;;;11.77;6.80;;;;;;;;;;4989334;28;20026;-75
2021/06/01 03:34:59;;;;;;;9.07;6.67;;;;;;;;;;4989169;28;20419;-74
2021/06/01 03:37:24;;;;;;;18.17;7.13;;;;;;;;;;4988956;28;20040;-75
2021/06/01 03:39:50;;;;;;;12.70;7.03;;;;;;;;;;4988981;28;20214;-76
2021/06/01 03:42:16;;;;;;;9.90;7.20;;;;;;;;;;4989419;28;20045;-75
2021/06/01 03:44:42;;;;;;;10.07;7.33;;;;;;;;;;4989005;28;20038;-73
2021/06/01 03:47:09;;;;;;;11.60;6.13;;;;;;;;;;4990252;28;20510;-75
2021/06/01 03:49:35;;;;;;;13.30;6.23;;;;;;;;;;4989236;28;20018;-75
2021/06/01 03:52:01;;;;;;;9.57;6.80;;;;;;;;;;4988766;28;20041;-74
2021/06/01 03:54:27;;;;;;;18.40;7.00;;;;;;;;;;4988936;28;20034;-74
2021/06/01 03:56:52;;;;;;;13.50;6.73;;;;;;;;;;4989037;28;20109;-74
2021/06/01 03:59:18;;;;;;;11.30;6.80;;;;;;;;;;4989191;28;20155;-74
2021/06/01 04:01:43;;;;;;;14.47;7.53;;;;;;;;;;4988954;28;20059;-74
2021/06/01 04:04:09;;;;;;;13.70;7.40;;;;;;;;;;4988872;28;20502;-75
2021/06/01 04:06:35;;;;;;;12.47;6.70;;;;;;;;;;4989229;28;20117;-75
2021/06/01 04:09:00;;;;;;;11.37;6.20;;;;;;;;;;4988647;28;20030;-75
2021/06/01 04:11:26;;;;;;;11.50;7.90;;;;;;;;;;4988784;28;20023;-74
2021/06/01 04:13:53;;;;;;;14.90;7.07;;;;;;;;;;4990317;28;20102;-75
2021/06/01 04:16:18;;;;;;;11.67;6.93;;;;;;;;;;4990053;28;20031;-77
2021/06/01 04:18:44;;;;;;;10.37;7.00;;;;;;;;;;4988678;28;20029;-75
2021/06/01 04:21:09;;;;;;;13.30;7.97;;;;;;;;;;4988666;28;20309;-75
2021/06/01 04:23:35;;;;;;;11.20;6.23;;;;;;;;;;4990354;28;20045;-74
2021/06/01 04:26:00;;;;;;;15.03;7.20;;;;;;;;;;4990219;28;20327;-76
2021/06/01 04:28:26;;;;;;;11.97;6.90;;;;;;;;;;4988770;28;20104;-75
2021/06/01 04:30:51;;;;;;;10.23;6.97;;;;;;;;;;4988937;28;20386;-76
2021/06/01 04:33:17;;;;;;;14.27;7.40;;;;;;;;;;4989980;28;20038;-74
2021/06/01 04:35:42;;;;;;;13.27;7.27;;;;;;;;;;4988726;28;20026;-73
2021/06/01 04:38:08;;;;;;;12.57;7.53;;;;;;;;;;4990022;28;20030;-76
2021/06/01 04:40:33;;;;;;;14.30;6.87;;;;;;;;;;4989512;28;20022;-75
2021/06/01 04:42:59;;;;;;;16.33;7.23;;;;;;;;;;4992058;28;20627;-75
2021/06/01 04:45:25;;;;;;;10.60;6.80;;;;;;;;;;4992498;28;20368;-74
2021/06/01 04:47:53;;;;;;;13.40;7.30;;;;;;;;;;4993599;28;20104;-74
2021/06/01 04:50:18;;;;;;;22.27;8.27;;;;;;;;;;4992128;28;20026;-74
2021/06/01 04:52:44;;;;;;;13.70;7.23;;;;;;;;;;4992364;28;20498;-75
2021/06/01 04:55:11;;;;;;;13.07;7.03;;;;;;;;;;4993270;28;20528;-75
2021/06/01 04:57:39;;;;;;;13.10;7.57;;;;;;;;;;4975908;28;20046;-75
2021/06/01 05:00:06;;;;;;;12.70;7.77;;;;;;;;;;4991397;28;20413;-75
2021/06/01 05:02:32;;;;;;;12.00;7.00;;;;;;;;;;4991897;28;20467;-75
2021/06/01 05:04:58;;;;;;;13.07;7.00;;;;;;;;;;4991933;28;20037;-74
2021/06/01 05:07:24;;;;;;;12.93;7.67;;;;;;;;;;4992032;28;20632;-75
2021/06/01 05:09:49;;;;;;;14.37;7.57;;;;;;;;;;4993179;28;20029;-76
2021/06/01 05:12:15;;;;;;;22.87;8.13;;;;;;;;;;4993010;28;20074;-76
2021/06/01 05:14:40;;;;;;;11.20;6.80;;;;;;;;;;4992018;28;20026;-75
2021/06/01 05:17:06;;;;;;;15.77;8.57;;;;;;;;;;4963023;28;20960;-76
2021/06/01 05:19:31;;;;;;;20.80;8.03;;;;;;;;;;4967732;28;20034;-75
2021/06/01 05:21:57;;;;;;;17.10;8.10;;;;;;;;;;4955907;28;20743;-75
2021/06/01 05:24:23;;;;;;;11.70;7.83;;;;;;;;;;4959818;28;20037;-75
2021/06/01 05:26:50;;;;;;;14.13;8.77;;;;;;;;;;4956996;28;20039;-74
2021/06/01 05:29:15;;;;;;;9.80;7.70;;;;;;;;;;4955255;28;20494;-74
2021/06/01 05:34:08;;;;;;;17.03;8.10;;;;;;;;;;4974132;28;20046;-75
2021/06/01 05:36:33;;;;;;;15.73;8.27;;;;;;;;;;4970776;28;20490;-75
2021/06/01 05:38:59;;;;;;;18.70;8.17;;;;;;;;;;4959004;28;20035;-74
2021/06/01 05:41:24;;;;;;;10.53;7.30;;;;;;;;;;4971286;28;20050;-75
2021/06/01 05:43:50;;;;;;;15.00;8.30;;;;;;;;;;4965758;28;20039;-76
2021/06/01 05:46:15;;;;;;;12.27;7.33;;;;;;;;;;4954881;28;20093;-74
2021/06/01 05:48:41;;;;;;;15.70;9.17;;;;;;;;;;4970866;28;20067;-74
2021/06/01 05:51:08;;;;;;;10.90;7.33;;;;;;;;;;4989015;28;20121;-75
2021/06/01 05:53:33;;;;;;;11.13;7.73;;;;;;;;;;4979879;28;20039;-75
2021/06/01 05:55:59;;;;;;;11.17;7.73;;;;;;;;;;4974239;28;20023;-74
2021/06/01 05:58:25;;;;;;;11.80;8.00;;;;;;;;;;4952381;28;20158;-75
2021/06/01 06:00:51;;;;;;;14.33;7.57;;;;;;;;;;4970406;28;20023;-74
2021/06/01 06:03:17;;;;;;;16.43;7.10;;;;;;;;;;4986943;28;20047;-76
2021/06/01 06:05:44;;;;;;;16.00;7.53;;;;;;;;;;4972061;28;20512;-75
2021/06/01 06:08:12;;;;;;;17.57;8.37;;;;;;;;;;4964768;28;20097;-75
2021/06/01 06:10:39;;;;;;;11.00;7.53;;;;;;;;;;4973824;28;20118;-75
2021/06/01 06:13:05;;;;;;;14.47;7.53;;;;;;;;;;4969969;28;20025;-76
2021/06/01 06:15:30;;;;;;;14.83;7.67;;;;;;;;;;4974534;28;20034;-76
2021/06/01 06:18:18;;;;;;;10.60;7.40;;;;;;;;;;4974214;28;20034;-73
2021/06/01 06:20:44;;;;;;;18.70;7.97;;;;;;;;;;4964131;28;20564;-74
2021/06/01 06:23:12;;;;;;;10.70;6.70;;;;;;;;;;4972402;28;20121;-74
2021/06/01 06:25:38;;;;;;;12.47;7.67;;;;;;;;;;4978750;28;20490;-74
2021/06/01 06:28:03;;;;;;;17.37;8.13;;;;;;;;;;4980481;28;20036;-76
2021/06/01 06:30:29;;;;;;;14.37;7.30;;;;;;;;;;4973278;28;20038;-75
2021/06/01 06:32:57;;;;;;;11.43;8.07;;;;;;;;;;4959984;28;20646;-74
2021/06/01 06:35:24;;;;;;;14.93;8.83;;;;;;;;;;4966111;28;20044;-73
2021/06/01 06:37:50;;;;;;;16.57;7.27;;;;;;;;;;4979398;28;20026;-76
2021/06/01 06:40:16;;;;;;;14.63;7.93;;;;;;;;;;4971549;28;20050;-76
2021/06/01 06:42:42;;;;;;;14.40;7.57;;;;;;;;;;4974989;28;20168;-75
2021/06/01 06:45:10;;;;;;;13.60;7.30;;;;;;;;;;4983086;28;20043;-76
2021/06/01 06:50:18;;;;;;;11.83;7.20;;;;;;;;;;4975192;28;20035;-75
2021/06/01 06:52:44;;;;;;;17.17;6.23;;;;;;;;;;4985092;28;20034;-76
2021/06/01 06:55:12;;;;;;;18.83;7.33;;;;;;;;;;4959357;28;20111;-76
2021/06/01 06:57:39;;;;;;;14.33;6.50;;;;;;;;;;4986684;28;20026;-75
2021/06/01 07:00:09;;;;;;;10.23;6.10;;;;;;;;;;4978235;28;20046;-75
2021/06/01 07:02:36;;;;;;;16.17;7.37;;;;;;;;;;4966826;28;20031;-75
2021/06/01 07:05:03;;;;;;;10.53;6.30;;;;;;;;;;4970620;28;20026;-75
2021/06/01 07:07:29;;;;;;;15.30;7.90;;;;;;;;;;4970443;28;20057;-74
2021/06/01 07:09:55;;;;;;;8.80;5.47;;;;;;;;;;4968115;28;20073;-76
2021/06/01 07:12:21;;;;;;;12.30;6.63;;;;;;;;;;4968836;28;20118;-76
2021/06/01 07:15:21;;;;;;;12.10;5.67;;;;;;;;;;4965943;28;20043;-76
2021/06/01 07:17:52;;;;;;;8.47;5.60;;;;;;;;;;4963580;28;20070;-75
2021/06/01 07:20:18;;;;;;;10.63;6.30;;;;;;;;;;4960563;28;20035;-77
2021/06/01 07:22:43;;;;;;;7.80;5.63;;;;;;;;;;4957908;28;20523;-75
2021/06/01 07:25:10;;;;;;;11.30;5.60;;;;;;;;;;4978584;28;20150;-75
2021/06/01 07:27:36;;;;;;;7.50;5.00;;;;;;;;;;4961253;28;20034;-76
2021/06/01 07:30:03;;;;;;;14.05;6.47;;;;;;;;;;4965390;28;20107;-76
2021/06/01 07:32:32;;;;;;;8.93;5.45;;;;;;;;;;4963623;28;20129;-76
2021/06/01 07:34:59;;;;;;;7.90;4.90;;;;;;;;;;4963333;28;20497;-74
2021/06/01 07:37:25;;;;;;;6.43;5.00;;;;;;;;;;4960483;28;20038;-76
2021/06/01 07:39:51;;;;;;;14.65;5.10;;;;;;;;;;4961433;28;20636;-77
2021/06/01 07:42:16;;;;;;;9.05;5.07;;;;;;;;;;4958499;28;20175;-76
2021/06/01 07:44:42;;;;;;;5.55;4.28;;;;;;;;;;4969688;28;20494;-75
2021/06/01 07:47:07;;;;;;;21.95;7.90;;;;;;;;;;4956727;28;20432;-76
2021/06/01 07:49:33;;;;;;;8.85;4.75;;;;;;;;;;4962691;28;20550;-75
2021/06/01 07:51:59;;;;;;;8.95;4.38;;;;;;;;;;4966182;28;20565;-76
2021/06/01 07:54:25;;;;;;;4.25;3.38;;;;;;;;;;4962456;28;20034;-76
2021/06/01 07:56:50;;;;;;;8.65;3.50;;;;;;;;;;4968668;28;20034;-74
2021/06/01 07:59:16;;;;;;;10.20;3.20;;;;;;;;;;4960080;28;20105;-76
2021/06/01 08:01:43;;;;;;;7.63;3.35;;;;;;;;;;4945205;28;20043;-77
2021/06/01 08:04:09;;;;;;;8.63;5.25;;;;;;;;;;4961246;28;20031;-76
2021/06/01 08:06:38;;;;;;;7.35;4.20;;;;;;;;;;4975660;28;20035;-74
2021/06/01 08:09:07;;;;;;;4.40;3.45;;;;;;;;;;4955886;28;20043;-75
2021/06/01 08:11:34;;;;;;;4.53;3.08;;;;;;;;;;4961523;28;20026;-75
2021/06/01 08:14:00;;;;;;;3.63;2.30;;;;;;;;;;4960710;28;20062;-76
2021/06/01 08:16:26;;;;;;;5.43;3.42;;;;;;;;;;4965223;28;20054;-75
2021/06/01 08:19:06;;;;;;;4.95;3.13;;;;;;;;;;4962495;28;20081;-76
2021/06/01 08:24:09;;;;;;;8.80;3.10;;;;;;;;;;4963991;28;20737;-74
2021/06/01 08:26:36;;;;;;;6.53;2.78;;;;;;;;;;4967185;28;20045;-77
2021/06/01 08:29:02;;;;;;;2.97;2.38;;;;;;;;;;4963607;28;20439;-78
2021/06/01 08:31:28;;;;;;;5.40;3.20;;;;;;;;;;4967319;28;20023;-76
2021/06/01 08:33:54;;;;;;;9.80;2.42;;;;;;;;;;4969761;28;20038;-76
2021/06/01 08:36:20;;;;;;;7.70;3.15;;;;;;;;;;4969682;28;20035;-78
2021/06/01 08:38:45;;;;;;;4.57;2.92;;;;;;;;;;4959508;28;20047;-78
2021/06/01 08:41:16;;;;;;;4.80;2.55;;;;;;;;;;4965055;28;21193;-75
2021/06/01 08:43:42;;;;;;;3.85;2.92;;;;;;;;;;4964107;28;20058;-77
2021/06/01 08:46:10;;;;;;;4.35;3.00;;;;;;;;;;4982318;28;20038;-76
2021/06/01 08:48:36;;;;;;;7.78;3.08;;;;;;;;;;4964307;28;20527;-76
2021/06/01 08:51:01;;;;;;;9.10;3.88;;;;;;;;;;4961897;28;20033;-76
2021/06/01 08:53:27;;;;;;;3.85;2.80;;;;;;;;;;4964050;28;20035;-77
2021/06/01 08:55:52;;;;;;;6.22;3.05;;;;;;;;;;4966327;28;20042;-75
2021/06/01 08:58:23;;;;;;;6.70;3.42;;;;;;;;;;4965533;28;20057;-75
2021/06/01 09:00:49;;;;;;;6.43;3.47;;;;;;;;;;4962673;28;20038;-73
2021/06/01 09:03:17;;;;;;;5.22;3.35;;;;;;;;;;4947408;28;20288;-76
2021/06/01 09:06:03;;;;;;;15.05;3.63;;;;;;;;;;4967542;28;20035;-76
2021/06/01 09:09:06;;;;;;;4.68;2.42;;;;;;;;;;4964696;28;20038;-75
2021/06/01 09:22:49;;;;;;;8.00;4.13;;;;;;;;;;4960949;28;20039;-75
2021/06/01 09:28:08;;;;;;;2.35;2.03;;;;;;;;;;4957091;28;20093;-77
2021/06/01 09:30:44;;;;;;;2.92;2.13;;;;;;;;;;4964371;28;20077;-75
2021/06/01 09:33:16;;;;;;;4.50;2.60;;;;;;;;;;4965651;28;20043;-75
2021/06/01 09:35:48;;;;;;;3.78;2.35;;;;;;;;;;4966679;28;20035;-76
2021/06/01 09:38:16;;;;;;;3.85;2.65;;;;;;;;;;4966264;28;20074;-75
2021/06/01 09:40:42;;;;;;;3.00;2.00;;;;;;;;;;4950509;28;20026;-75
2021/06/01 09:43:15;;;;;;;4.70;2.58;;;;;;;;;;4963908;28;20058;-76
2021/06/01 09:45:43;;;;;;;4.90;2.20;;;;;;;;;;4960656;28;20192;-74
2021/06/01 09:48:10;;;;;;;5.30;2.58;;;;;;;;;;4962631;28;20085;-77
2021/06/01 09:53:21;;;;;;;7.60;2.95;;;;;;;;;;4964688;28;20030;-76
2021/06/01 09:55:47;;;;;;;3.42;2.65;;;;;;;;;;4966083;28;20546;-73
2021/06/01 09:58:23;;;;;;;4.88;2.97;;;;;;;;;;4972377;28;20042;-76
2021/06/01 10:00:49;;;;;;;4.82;2.88;;;;;;;;;;4965313;28;20105;-75
2021/06/01 10:03:20;;;;;;;4.63;2.22;;;;;;;;;;4964525;28;20117;-76
2021/06/01 10:05:49;;;;;;;2.70;2.30;;;;;;;;;;4967298;28;20030;-76
2021/06/01 10:08:21;;;;;;;6.28;3.13;;;;;;;;;;4965483;28;20459;-76
2021/06/01 10:10:59;;;;;;;;;;;;;;;;;;4969293;28;20392;-77
2021/06/01 10:13:28;;;;;;;7.90;3.15;;;;;;;;;;4967094;28;19913;-76
2021/06/01 10:15:57;;;;;;;5.13;2.55;;;;;;;;;;4966928;28;20102;-75
2021/06/01 10:18:29;;;;;;;6.72;2.55;;;;;;;;;;4966139;28;20775;-76
2021/06/01 10:20:57;;;;;;;7.18;3.25;;;;;;;;;;4963526;28;20414;-76
2021/06/01 10:23:27;;;;;;;8.18;2.78;;;;;;;;;;4954522;28;20037;-76
2021/06/01 10:25:54;;;;;;;6.93;3.20;;;;;;;;;;4964350;28;20057;-75
2021/06/01 10:28:26;;;;;;;8.57;3.45;;;;;;;;;;4950658;28;20347;-75
2021/06/01 10:30:56;;;;;;;;;;;;;;;;;;4956179;28;20057;-76
2021/06/01 10:33:22;;;;;;;6.50;3.95;;;;;;;;;;4973372;28;20017;-75
2021/06/01 10:36:04;;;;;;;7.25;2.85;;;;;;;;;;4962313;28;20113;-74
2021/06/01 10:52:13;;;;;;;3.28;2.70;;;;;;;;;;4965459;28;20307;-75
2021/06/01 10:54:39;;;;;;;4.38;2.80;;;;;;;;;;4960545;28;20030;-77
2021/06/01 10:57:11;;;;;;;5.13;3.78;;;;;;;;;;4964615;28;20391;-76
2021/06/01 10:59:47;;;;;;;6.20;3.15;;;;;;;;;;4957521;28;20471;-76
2021/06/01 11:02:14;;;;;;;5.43;2.78;;;;;;;;;;4963722;28;20881;-77
2021/06/01 11:04:59;;;;;;;3.85;2.05;;;;;;;;;;4974964;28;20104;-75
2021/06/01 11:07:27;;;;;;;3.83;2.60;;;;;;;;;;4965027;28;20053;-79
2021/06/01 11:09:54;;;;;;;3.55;2.33;;;;;;;;;;4959259;28;20163;-77
2021/06/01 11:12:24;;;;;;;6.70;2.60;;;;;;;;;;4960726;28;20561;-76
2021/06/01 11:14:54;;;;;;;6.03;2.85;;;;;;;;;;4964139;28;20161;-75
2021/06/01 11:17:34;;;;;;;5.30;2.47;;;;;;;;;;4969050;28;20039;-77
2021/06/01 11:20:12;;;;;;;3.78;2.33;;;;;;;;;;4961037;28;20086;-76
2021/06/01 11:22:44;;;;;;;4.20;2.55;;;;;;;;;;4961657;28;20030;-75
2021/06/01 11:33:40;;;;;;;7.05;2.90;;;;;;;;;;4955641;28;20426;-76
2021/06/01 11:36:11;;;;;;;7.32;3.53;;;;;;;;;;4962352;28;20041;-76
2021/06/01 11:38:44;;;;;;;6.47;2.70;;;;;;;;;;4976158;28;20126;-76
2021/06/01 11:43:57;;;;;;;3.15;2.65;;;;;;;;;;4959393;28;20197;-75
2021/06/01 11:46:40;;;;;;;8.85;2.60;;;;;;;;;;4963735;28;20776;-74
2021/06/01 11:51:51;;;;;;;5.63;3.03;;;;;;;;;;4960980;28;20142;-76
2021/06/01 11:54:17;;;;;;;7.65;2.50;;;;;;;;;;4958397;28;20873;-75
2021/06/01 11:57:04;;;;;;;3.20;2.30;;;;;;;;;;4958425;28;20034;-76
2021/06/01 12:02:31;;;;;;;6.72;2.30;;;;;;;;;;4962851;28;20845;-76
2021/06/01 12:05:19;;;;;;;8.32;2.70;;;;;;;;;;4959789;28;20356;-77
2021/06/01 12:19:12;;;;;;;9.10;3.15;;;;;;;;;;4958910;28;20367;-76
2021/06/01 12:21:41;;;;;;;6.78;2.85;;;;;;;;;;4960524;28;20039;-76
2021/06/01 12:24:11;;;;;;;5.35;3.30;;;;;;;;;;4961830;28;20042;-77
2021/06/01 12:32:14;;;;;;;5.35;3.92;;;;;;;;;;4972077;28;20063;-77
2021/06/01 12:43:34;;;;;;;7.63;2.70;;;;;;;;;;4961084;28;20221;-77
2021/06/01 12:47:00;;;;;;;4.35;2.40;;;;;;;;;;4966158;28;20122;-75
2021/06/01 13:20:38;;;;;;;6.72;2.80;;;;;;;;;;4960720;28;20052;-77
2021/06/01 13:39:47;;;;;;;8.38;2.50;;;;;;;;;;4963422;28;20042;-76
2021/06/01 13:48:46;;;;;;;6.17;2.40;;;;;;;;;;4959848;28;20049;-76
2021/06/01 13:50:57;;;;;;;4.45;2.78;;;;;;;;;;4972831;28;20046;-76
2021/06/01 13:56:04;;;;;;;4.25;2.67;;;;;;;;;;4962494;28;20163;-76
2021/06/01 14:01:19;;;;;;;4.22;2.63;;;;;;;;;;4955992;28;20031;-76
2021/06/01 14:09:44;;;;;;;7.18;2.67;;;;;;;;;;4962915;28;20130;-77
2021/06/01 14:20:58;;;;;;;4.07;1.98;;;;;;;;;;4959482;28;20093;-77
2021/06/01 14:40:16;;;;;;;2.70;2.13;;;;;;;;;;4961074;28;20163;-77
2021/06/01 14:55:02;;;;;;;6.55;2.95;;;;;;;;;;4975370;28;20050;-77
2021/06/01 15:32:08;;;;;;;4.50;2.40;;;;;;;;;;4956570;28;20484;-76
2021/06/01 16:13:33;;;;;;;5.53;2.40;;;;;;;;;;4952228;28;20436;-74
2021/06/01 16:29:37;;;;;;;3.10;2.25;;;;;;;;;;4953087;28;20070;-77
2021/06/01 16:29:42;;;;;;;2.92;2.10;;;;;;;;;;4969279;28;20390;-76
2021/06/01 17:13:40;;;;;;;10.32;3.47;;;;;;;;;;4960307;28;20149;-79
2021/06/01 17:16:11;;;;;;;6.15;3.92;;;;;;;;;;4961384;28;20428;-77
2021/06/01 17:37:00;;;;;;;7.55;3.38;;;;;;;;;;4957581;29;20094;-79
2021/06/01 17:39:26;;;;;;;7.90;2.70;;;;;;;;;;4948878;28;20035;-78
2021/06/01 17:41:54;;;;;;;7.43;2.17;;;;;;;;;;4965515;28;20030;-80
2021/06/01 17:44:24;;;;;;;4.63;2.15;;;;;;;;;;4954026;29;20053;-79
2021/06/01 17:46:50;;;;;;;5.93;2.55;;;;;;;;;;4956035;28;20135;-81
2021/06/01 17:49:22;;;;;;;2.65;2.00;;;;;;;;;;4954810;29;20086;-79
2021/06/01 17:51:53;;;;;;;3.42;2.22;;;;;;;;;;4953262;29;20353;-78
2021/06/01 17:54:27;;;;;;;4.90;2.38;;;;;;;;;;4953418;29;20032;-77
2021/06/01 17:56:54;;;;;;;2.90;2.22;;;;;;;;;;4952536;29;20023;-79
2021/06/01 17:59:22;;;;;;;3.28;2.20;;;;;;;;;;4957660;28;20479;-78
2021/06/01 18:01:48;;;;;;;5.97;2.85;;;;;;;;;;4938018;29;20126;-78
2021/06/01 18:04:16;;;;;;;3.40;2.65;;;;;;;;;;4953465;28;20035;-77
2021/06/01 18:06:46;;;;;;;5.63;3.00;;;;;;;;;;4952232;29;20424;-77
2021/06/01 19:25:46;;;;;;;6.38;3.58;;;;;;;;;;4951931;29;20050;-76
2021/06/01 19:50:39;;;;;;;4.82;3.05;;;;;;;;;;4951903;28;20045;-79
2021/06/01 19:53:05;;;;;;;;;;;;;;;;;;4952519;29;20035;-80
2021/06/01 19:55:31;;;;;;;7.68;3.47;;;;;;;;;;4953221;28;19910;-79
2021/06/01 19:57:56;;;;;;;8.93;3.88;;;;;;;;;;4951586;29;20535;-77
2021/06/01 20:00:24;;;;;;;6.75;2.83;;;;;;;;;;4952423;28;20235;-79
2021/06/01 20:02:50;;;;;;;7.70;3.70;;;;;;;;;;4950704;29;20174;-79
2021/06/01 20:05:18;;;;;;;7.97;3.75;;;;;;;;;;4951830;29;20121;-78
2021/06/01 20:07:45;;;;;;;6.82;3.55;;;;;;;;;;4950007;29;20101;-78
2021/06/01 20:10:15;;;;;;;9.93;4.18;;;;;;;;;;4950896;28;20127;-79
2021/06/01 20:12:41;;;;;;;11.50;4.32;;;;;;;;;;4957058;28;20027;-78
2021/06/01 20:15:09;;;;;;;8.98;3.33;;;;;;;;;;4955089;29;20031;-78
2021/06/01 20:17:40;;;;;;;14.20;5.03;;;;;;;;;;4955650;29;20031;-79
2021/06/01 20:20:23;;;;;;;12.90;4.38;;;;;;;;;;4955846;28;20481;-78
2021/06/01 20:23:10;;;;;;;12.43;4.78;;;;;;;;;;4955096;29;20032;-77
2021/06/01 20:25:36;;;;;;;21.25;6.88;;;;;;;;;;4955308;28;20133;-77
2021/06/01 20:28:05;;;;;;;8.45;4.47;;;;;;;;;;4955881;28;20689;-78
2021/06/01 20:30:34;;;;;;;7.15;4.45;;;;;;;;;;4938120;29;20392;-79
2021/06/01 20:35:48;;;;;;;9.40;4.68;;;;;;;;;;4955151;28;20106;-79
2021/06/01 20:38:16;;;;;;;11.10;5.20;;;;;;;;;;4954074;28;20035;-80
2021/06/01 20:40:42;;;;;;;8.80;4.60;;;;;;;;;;4953883;28;20015;-78
2021/06/01 20:43:09;;;;;;;9.50;4.85;;;;;;;;;;4953057;29;20057;-76
2021/06/01 20:45:42;;;;;;;9.48;4.20;;;;;;;;;;4956764;29;20121;-78
2021/06/01 20:48:13;;;;;;;4.93;4.00;;;;;;;;;;4955247;29;20019;-79
2021/06/01 20:50:41;;;;;;;7.32;3.88;;;;;;;;;;4953987;29;20170;-79
2021/06/01 20:53:07;;;;;;;8.43;4.13;;;;;;;;;;4970544;28;20033;-77
2021/06/01 20:55:33;;;;;;;9.50;3.70;;;;;;;;;;4954405;28;20059;-79
2021/06/01 20:58:04;;;;;;;7.35;3.63;;;;;;;;;;4954202;28;20063;-77
2021/06/01 21:00:32;;;;;;;;;;;;;;;;;;4957600;28;20220;-77
2021/06/01 21:02:58;;;;;;;7.80;3.45;;;;;;;;;;4954754;28;20542;-76
2021/06/01 21:05:30;;;;;;;8.38;3.97;;;;;;;;;;4954533;29;20031;-77
2021/06/01 21:07:59;;;;;;;6.82;4.00;;;;;;;;;;4953385;28;20027;-77
2021/06/01 21:10:26;;;;;;;7.28;4.15;;;;;;;;;;4954192;29;20027;-77
2021/06/01 21:12:53;;;;;;;5.88;4.03;;;;;;;;;;4955280;28;20058;-79
2021/06/01 21:15:20;;;;;;;8.20;3.83;;;;;;;;;;4953940;29;20102;-79
2021/06/01 21:17:46;;;;;;;5.13;3.60;;;;;;;;;;4938374;29;20190;-79
2021/06/01 21:20:14;;;;;;;8.77;3.47;;;;;;;;;;4954461;28;20476;-79
2021/06/01 21:22:42;;;;;;;5.75;3.20;;;;;;;;;;4953524;28;20145;-79
2021/06/01 21:25:14;;;;;;;5.72;3.30;;;;;;;;;;4938611;29;20038;-78
2021/06/01 21:27:43;;;;;;;6.13;3.35;;;;;;;;;;4953812;29;20031;-79
2021/06/01 21:30:10;;;;;;;3.88;3.13;;;;;;;;;;4954672;28;20031;-77
2021/06/01 21:33:04;;;;;;;8.65;3.72;;;;;;;;;;4955076;28;20056;-78
2021/06/01 21:35:37;;;;;;;9.75;3.22;;;;;;;;;;4955806;28;20098;-78
2021/06/01 21:38:04;;;;;;;6.50;2.78;;;;;;;;;;4954268;28;20043;-78
2021/06/01 21:40:33;;;;;;;8.65;3.00;;;;;;;;;;4955821;28;20106;-76
2021/06/01 21:43:00;;;;;;;4.82;3.15;;;;;;;;;;4938771;29;20078;-77
2021/06/01 21:45:28;;;;;;;4.43;3.15;;;;;;;;;;4958712;28;20031;-79
2021/06/01 21:47:57;;;;;;;5.85;3.08;;;;;;;;;;4967294;29;20035;-77
2021/06/01 21:50:29;;;;;;;6.72;3.55;;;;;;;;;;4958321;29;20476;-79
2021/06/01 21:52:56;;;;;;;4.90;3.20;;;;;;;;;;4937071;28;20038;-78
2021/06/01 21:55:30;;;;;;;5.13;3.40;;;;;;;;;;4952300;28;20042;-79
2021/06/01 21:57:56;;;;;;;6.85;4.10;;;;;;;;;;4953727;28;20031;-77
2021/06/01 22:00:51;;;;;;;6.70;3.30;;;;;;;;;;4954515;28;20436;-79
2021/06/01 22:03:20;;;;;;;4.70;3.38;;;;;;;;;;4953038;28;20050;-78
2021/06/01 22:05:46;;;;;;;7.03;3.50;;;;;;;;;;4952343;28;20028;-77